Time;durP1;ratioP1;P1;durP2;ratioP2;P2;SDS_P1;SDS_P2;PMS_P1;PMS_P2;Temp;Humidity;BMP_temperature;BMP_pressure;BME280_temperature;BME280_humidity;BME280_pressure;Samples;Min_cycle;Max_cycle;Signal;HPM_P1;HPM_P2
2022/04/14 00:00:19;;;;;;;78.13;46.40;;;;;;;;;;5032097;28;20256;-64
2022/04/14 00:02:45;;;;;;;73.00;44.73;;;;;;;;;;5032265;28;20659;-65
2022/04/14 00:05:11;;;;;;;76.10;42.37;;;;;;;;;;5033776;28;20179;-65
2022/04/14 00:07:38;;;;;;;74.17;43.23;;;;;;;;;;5032740;28;20233;-64
2022/04/14 00:10:05;;;;;;;77.00;43.77;;;;;;;;;;5032821;28;20175;-62
2022/04/14 00:12:31;;;;;;;80.13;43.50;;;;;;;;;;5034835;28;20202;-64
2022/04/14 00:14:57;;;;;;;82.93;45.83;;;;;;;;;;5036528;28;20553;-64
2022/04/14 00:17:23;;;;;;;82.23;46.63;;;;;;;;;;5037791;28;20229;-64
2022/04/14 00:19:49;;;;;;;81.50;46.07;;;;;;;;;;5037417;28;20214;-64
2022/04/14 00:22:15;;;;;;;84.70;46.50;;;;;;;;;;5037161;28;20642;-64
2022/04/14 00:24:41;;;;;;;76.97;43.17;;;;;;;;;;5035868;28;20187;-64
2022/04/14 00:27:07;;;;;;;75.37;43.33;;;;;;;;;;5036999;28;20199;-65
2022/04/14 00:29:33;;;;;;;82.67;46.00;;;;;;;;;;5036973;28;20202;-65
2022/04/14 00:31:59;;;;;;;79.30;43.87;;;;;;;;;;5036767;28;20206;-64
2022/04/14 00:34:25;;;;;;;80.43;44.27;;;;;;;;;;5035479;28;20174;-65
2022/04/14 00:36:51;;;;;;;85.73;45.30;;;;;;;;;;5035464;28;20345;-62
2022/04/14 00:39:17;;;;;;;77.53;44.37;;;;;;;;;;5036932;28;20190;-62
2022/04/14 00:41:43;;;;;;;87.60;45.03;;;;;;;;;;5036632;28;20244;-65
2022/04/14 00:44:09;;;;;;;84.90;45.47;;;;;;;;;;5036775;28;20191;-63
2022/04/14 00:46:35;;;;;;;82.73;45.53;;;;;;;;;;5036720;28;20211;-63
2022/04/14 00:49:01;;;;;;;80.13;45.37;;;;;;;;;;5036718;28;20176;-63
2022/04/14 00:51:27;;;;;;;82.43;44.53;;;;;;;;;;5035178;28;20199;-63
2022/04/14 00:53:53;;;;;;;78.07;44.67;;;;;;;;;;5036226;28;20202;-63
2022/04/14 00:56:19;;;;;;;84.60;46.03;;;;;;;;;;5036543;28;20326;-63
2022/04/14 00:58:45;;;;;;;86.90;44.70;;;;;;;;;;5036833;28;20175;-63
2022/04/14 01:01:12;;;;;;;84.47;44.63;;;;;;;;;;5036236;28;20179;-63
2022/04/14 01:03:38;;;;;;;84.97;45.23;;;;;;;;;;5035029;28;20183;-63
2022/04/14 01:06:04;;;;;;;91.80;47.57;;;;;;;;;;5036503;28;20218;-63
2022/04/14 01:08:32;;;;;;;90.47;48.87;;;;;;;;;;5034869;28;20190;-63
2022/04/14 01:10:58;;;;;;;96.10;47.07;;;;;;;;;;5034863;28;20206;-62
2022/04/14 01:13:25;;;;;;;91.60;46.90;;;;;;;;;;5036373;28;20616;-63
2022/04/14 01:15:56;;;;;;;97.93;48.47;;;;;;;;;;5035826;28;20222;-63
2022/04/14 01:18:22;;;;;;;92.40;48.30;;;;;;;;;;5036635;28;20167;-63
2022/04/14 01:20:48;;;;;;;98.27;46.37;;;;;;;;;;5035926;28;20183;-63
2022/04/14 01:23:16;;;;;;;102.57;47.90;;;;;;;;;;5035490;28;20176;-63
2022/04/14 01:25:42;;;;;;;91.93;45.83;;;;;;;;;;5035843;28;20222;-63
2022/04/14 01:28:08;;;;;;;95.00;46.63;;;;;;;;;;5035964;28;20640;-63
2022/04/14 01:30:36;;;;;;;89.73;46.30;;;;;;;;;;5036172;28;20185;-63
2022/04/14 01:33:02;;;;;;;100.70;48.67;;;;;;;;;;5034555;28;20655;-64
2022/04/14 01:35:28;;;;;;;98.47;47.83;;;;;;;;;;5035607;28;20175;-63
2022/04/14 01:37:54;;;;;;;98.60;49.53;;;;;;;;;;5035657;28;20175;-64
2022/04/14 01:40:20;;;;;;;107.27;50.43;;;;;;;;;;5035671;28;20757;-63
2022/04/14 01:42:46;;;;;;;99.93;47.93;;;;;;;;;;5058533;22;20741;-65
2022/04/14 01:45:12;;;;;;;103.87;49.03;;;;;;;;;;5035556;28;20175;-65
2022/04/14 01:47:38;;;;;;;107.50;50.07;;;;;;;;;;5035775;28;20617;-65
2022/04/14 01:50:07;;;;;;;108.10;49.20;;;;;;;;;;5034078;28;20179;-65
2022/04/14 01:52:33;;;;;;;111.33;50.33;;;;;;;;;;5035092;28;20290;-66
2022/04/14 01:54:59;;;;;;;105.97;51.10;;;;;;;;;;5033860;28;20179;-65
2022/04/14 01:57:25;;;;;;;116.77;52.30;;;;;;;;;;5035359;28;20187;-66
2022/04/14 01:59:51;;;;;;;110.37;51.30;;;;;;;;;;5035221;28;20175;-66
2022/04/14 02:02:17;;;;;;;108.70;51.23;;;;;;;;;;5035111;28;20302;-66
2022/04/14 02:04:43;;;;;;;106.77;50.10;;;;;;;;;;5035533;28;20190;-65
2022/04/14 02:07:09;;;;;;;106.03;48.30;;;;;;;;;;5033648;28;20647;-66
2022/04/14 02:09:36;;;;;;;102.53;48.63;;;;;;;;;;5033753;28;20222;-66
2022/04/14 02:12:02;;;;;;;103.53;50.00;;;;;;;;;;5033488;28;20595;-66
2022/04/14 02:14:28;;;;;;;103.80;48.80;;;;;;;;;;5033701;28;20221;-66
2022/04/14 02:16:54;;;;;;;111.37;49.37;;;;;;;;;;5033717;28;20206;-65
2022/04/14 02:19:20;;;;;;;108.00;47.77;;;;;;;;;;5033515;28;20175;-65
2022/04/14 02:21:46;;;;;;;103.03;49.23;;;;;;;;;;5033294;28;20207;-65
2022/04/14 02:24:12;;;;;;;103.07;49.17;;;;;;;;;;5034903;28;20175;-65
2022/04/14 02:26:38;;;;;;;103.67;48.87;;;;;;;;;;5034545;28;20213;-65
2022/04/14 02:29:04;;;;;;;109.70;49.40;;;;;;;;;;5034979;28;20183;-66
2022/04/14 02:31:30;;;;;;;107.73;48.73;;;;;;;;;;5034315;28;20206;-65
2022/04/14 02:33:56;;;;;;;104.00;47.23;;;;;;;;;;5034628;28;20179;-66
2022/04/14 02:36:23;;;;;;;109.97;48.23;;;;;;;;;;5033876;28;20175;-66
2022/04/14 02:38:49;;;;;;;112.13;48.93;;;;;;;;;;5033410;28;20554;-66
2022/04/14 02:41:15;;;;;;;105.40;48.57;;;;;;;;;;5034150;28;20211;-66
2022/04/14 02:43:41;;;;;;;108.20;51.43;;;;;;;;;;5034572;28;20191;-65
2022/04/14 02:46:07;;;;;;;106.70;47.87;;;;;;;;;;5034264;28;20183;-65
2022/04/14 02:48:33;;;;;;;113.50;51.27;;;;;;;;;;5034210;28;20179;-66
2022/04/14 02:50:59;;;;;;;116.10;52.93;;;;;;;;;;5034440;28;20590;-66
2022/04/14 02:53:26;;;;;;;117.43;51.90;;;;;;;;;;5034068;28;20191;-65
2022/04/14 02:55:52;;;;;;;120.03;53.53;;;;;;;;;;5034208;28;20254;-65
2022/04/14 02:58:19;;;;;;;123.50;52.60;;;;;;;;;;5032860;28;20179;-65
2022/04/14 03:00:45;;;;;;;128.03;53.53;;;;;;;;;;5034243;28;20183;-66
2022/04/14 03:03:11;;;;;;;123.17;53.40;;;;;;;;;;5032662;28;20199;-65
2022/04/14 03:05:37;;;;;;;127.93;53.93;;;;;;;;;;5033922;28;20179;-66
2022/04/14 03:08:03;;;;;;;127.00;54.40;;;;;;;;;;5033855;28;20262;-66
2022/04/14 03:10:29;;;;;;;139.00;57.13;;;;;;;;;;5032438;28;20659;-66
2022/04/14 03:12:57;;;;;;;125.90;55.80;;;;;;;;;;5032332;28;20295;-65
2022/04/14 03:15:23;;;;;;;143.70;57.57;;;;;;;;;;5033816;28;20233;-66
2022/04/14 03:17:50;;;;;;;130.13;55.53;;;;;;;;;;5033680;28;20183;-65
2022/04/14 03:20:16;;;;;;;146.00;60.07;;;;;;;;;;5033680;28;20251;-66
2022/04/14 03:22:42;;;;;;;137.50;60.57;;;;;;;;;;5033567;28;20209;-65
2022/04/14 03:25:10;;;;;;;133.27;58.07;;;;;;;;;;5033743;28;20647;-66
2022/04/14 03:27:37;;;;;;;146.90;60.13;;;;;;;;;;5032218;28;20187;-65
2022/04/14 03:30:03;;;;;;;146.17;60.40;;;;;;;;;;5032471;28;20562;-66
2022/04/14 03:32:29;;;;;;;149.97;62.57;;;;;;;;;;5033354;28;20218;-65
2022/04/14 03:34:55;;;;;;;144.03;62.57;;;;;;;;;;5033446;28;20179;-65
2022/04/14 03:37:21;;;;;;;138.80;62.07;;;;;;;;;;5032211;28;20552;-65
2022/04/14 03:39:48;;;;;;;133.77;60.57;;;;;;;;;;5033738;28;20184;-65
2022/04/14 03:42:14;;;;;;;139.73;60.30;;;;;;;;;;5032223;28;20214;-65
2022/04/14 03:44:40;;;;;;;145.00;62.50;;;;;;;;;;5032249;28;20262;-66
2022/04/14 03:47:06;;;;;;;142.37;60.53;;;;;;;;;;5033333;28;20175;-65
2022/04/14 03:49:32;;;;;;;141.63;60.43;;;;;;;;;;5033429;28;20258;-65
2022/04/14 03:51:58;;;;;;;141.60;60.63;;;;;;;;;;5033059;28;20293;-65
2022/04/14 03:54:24;;;;;;;142.33;59.83;;;;;;;;;;5033083;28;20722;-65
2022/04/14 03:56:50;;;;;;;146.93;61.80;;;;;;;;;;5033295;28;20179;-65
2022/04/14 03:59:16;;;;;;;140.60;59.97;;;;;;;;;;5033124;28;20182;-65
2022/04/14 04:01:43;;;;;;;146.03;62.23;;;;;;;;;;5031786;28;20211;-65
2022/04/14 04:04:08;;;;;;;141.93;60.57;;;;;;;;;;5033063;28;20321;-65
2022/04/14 04:06:34;;;;;;;138.30;61.67;;;;;;;;;;5033187;28;20643;-64
2022/04/14 04:09:00;;;;;;;141.80;61.10;;;;;;;;;;5033172;28;20179;-66
2022/04/14 04:11:26;;;;;;;147.43;63.53;;;;;;;;;;5031597;28;20614;-65
2022/04/14 04:13:52;;;;;;;132.30;60.17;;;;;;;;;;5033082;28;20276;-65
2022/04/14 04:16:18;;;;;;;146.23;64.53;;;;;;;;;;5032942;28;20187;-65
2022/04/14 04:18:44;;;;;;;155.03;63.47;;;;;;;;;;5032984;28;20206;-65
2022/04/14 04:21:10;;;;;;;139.73;63.23;;;;;;;;;;5031785;28;20187;-65
2022/04/14 04:23:36;;;;;;;147.77;63.37;;;;;;;;;;5033026;28;20182;-65
2022/04/14 04:26:02;;;;;;;147.40;62.97;;;;;;;;;;5032992;28;20555;-65
2022/04/14 04:28:30;;;;;;;150.30;62.87;;;;;;;;;;5033123;28;20717;-65
2022/04/14 04:30:56;;;;;;;149.57;64.57;;;;;;;;;;5032939;28;20325;-65
2022/04/14 04:33:22;;;;;;;153.13;64.60;;;;;;;;;;5032798;28;20203;-65
2022/04/14 04:35:50;;;;;;;146.80;62.80;;;;;;;;;;5031477;28;20176;-65
2022/04/14 04:38:16;;;;;;;144.17;63.83;;;;;;;;;;5032685;28;20234;-65
2022/04/14 04:40:42;;;;;;;149.70;64.07;;;;;;;;;;5031656;28;20179;-65
2022/04/14 04:43:14;;;;;;;145.83;65.37;;;;;;;;;;5031174;28;20712;-65
2022/04/14 04:45:40;;;;;;;153.90;65.07;;;;;;;;;;5033620;28;20184;-65
2022/04/14 04:48:06;;;;;;;155.50;67.20;;;;;;;;;;5034177;28;20179;-65
2022/04/14 04:50:32;;;;;;;158.10;66.43;;;;;;;;;;5034625;28;20186;-65
2022/04/14 04:52:58;;;;;;;159.67;66.70;;;;;;;;;;5034464;28;20195;-65
2022/04/14 04:55:24;;;;;;;157.17;68.03;;;;;;;;;;5033518;28;20551;-65
2022/04/14 04:57:50;;;;;;;158.77;68.73;;;;;;;;;;5032700;28;20186;-64
2022/04/14 05:00:16;;;;;;;159.53;69.93;;;;;;;;;;5036120;28;20180;-65
2022/04/14 05:02:42;;;;;;;160.53;68.27;;;;;;;;;;5036319;28;20209;-65
2022/04/14 05:05:08;;;;;;;158.77;69.30;;;;;;;;;;5036161;28;20262;-65
2022/04/14 05:07:34;;;;;;;163.80;69.83;;;;;;;;;;5036168;28;20175;-65
2022/04/14 05:10:00;;;;;;;163.87;69.53;;;;;;;;;;5036321;28;20254;-65
2022/04/14 05:12:26;;;;;;;160.00;68.80;;;;;;;;;;5034558;28;20242;-65
2022/04/14 05:14:52;;;;;;;155.43;67.87;;;;;;;;;;5034603;28;20669;-66
2022/04/14 05:17:18;;;;;;;155.07;66.83;;;;;;;;;;5035832;28;20654;-65
2022/04/14 05:19:44;;;;;;;157.70;67.60;;;;;;;;;;5035984;28;20180;-65
2022/04/14 05:22:10;;;;;;;144.73;64.53;;;;;;;;;;5035797;28;20199;-65
2022/04/14 05:24:36;;;;;;;153.30;67.10;;;;;;;;;;5036006;28;20186;-65
2022/04/14 05:27:02;;;;;;;162.70;67.23;;;;;;;;;;5035873;28;20217;-65
2022/04/14 05:29:28;;;;;;;157.20;67.73;;;;;;;;;;5035540;28;20186;-65
2022/04/14 05:31:54;;;;;;;153.93;68.03;;;;;;;;;;5035675;28;20211;-65
2022/04/14 05:34:20;;;;;;;171.97;71.57;;;;;;;;;;5035926;28;20254;-65
2022/04/14 05:36:46;;;;;;;150.07;68.17;;;;;;;;;;5034520;28;20555;-65
2022/04/14 05:39:12;;;;;;;148.63;67.23;;;;;;;;;;5035438;28;20198;-65
2022/04/14 05:41:38;;;;;;;155.03;67.30;;;;;;;;;;5035297;28;20214;-66
2022/04/14 05:44:04;;;;;;;160.77;71.67;;;;;;;;;;5033983;28;20222;-65
2022/04/14 05:46:30;;;;;;;158.13;63.97;;;;;;;;;;5034180;28;20190;-65
2022/04/14 05:48:56;;;;;;;155.20;68.43;;;;;;;;;;5035323;28;20183;-65
2022/04/14 05:51:22;;;;;;;157.07;70.03;;;;;;;;;;5035694;28;20207;-65
2022/04/14 05:53:51;;;;;;;150.90;67.20;;;;;;;;;;5033877;28;20558;-65
2022/04/14 05:56:17;;;;;;;147.27;64.43;;;;;;;;;;5033936;28;20183;-65
2022/04/14 05:58:43;;;;;;;153.07;68.43;;;;;;;;;;5033898;28;20724;-65
2022/04/14 06:01:09;;;;;;;143.23;65.47;;;;;;;;;;5035037;28;20533;-65
2022/04/14 06:03:35;;;;;;;137.87;64.10;;;;;;;;;;5035112;28;20175;-65
2022/04/14 06:06:01;;;;;;;138.67;64.57;;;;;;;;;;5035035;28;20666;-65
2022/04/14 06:08:27;;;;;;;135.03;62.77;;;;;;;;;;5033728;28;20559;-65
2022/04/14 06:10:53;;;;;;;135.97;65.67;;;;;;;;;;5034834;28;20206;-65
2022/04/14 06:13:19;;;;;;;132.90;64.07;;;;;;;;;;5034760;28;20199;-65
2022/04/14 06:15:45;;;;;;;132.97;62.03;;;;;;;;;;5033621;28;20563;-66
2022/04/14 06:18:11;;;;;;;124.23;61.37;;;;;;;;;;5035115;28;20595;-65
2022/04/14 06:20:37;;;;;;;130.33;62.03;;;;;;;;;;5035091;28;20611;-65
2022/04/14 06:23:03;;;;;;;129.23;62.27;;;;;;;;;;5034653;28;20671;-67
2022/04/14 06:25:29;;;;;;;129.90;63.27;;;;;;;;;;5034517;28;20582;-65
2022/04/14 06:27:55;;;;;;;123.37;61.97;;;;;;;;;;5033368;28;20545;-65
2022/04/14 06:30:21;;;;;;;126.90;61.73;;;;;;;;;;5033399;28;20216;-65
2022/04/14 06:32:55;;;;;;;120.87;61.80;;;;;;;;;;5033133;28;20218;-65
2022/04/14 06:35:21;;;;;;;122.03;61.13;;;;;;;;;;5033199;28;20182;-65
2022/04/14 06:37:47;;;;;;;113.63;58.60;;;;;;;;;;5034495;28;20184;-65
2022/04/14 06:40:13;;;;;;;121.70;62.03;;;;;;;;;;5033224;28;20175;-65
2022/04/14 06:42:39;;;;;;;129.20;71.27;;;;;;;;;;5034267;28;20293;-65
2022/04/14 06:45:05;;;;;;;121.20;68.70;;;;;;;;;;5034330;28;20178;-64
2022/04/14 06:47:31;;;;;;;113.53;62.37;;;;;;;;;;5034484;28;20183;-65
2022/04/14 06:49:57;;;;;;;118.13;60.83;;;;;;;;;;5032929;28;20602;-65
2022/04/14 06:52:23;;;;;;;113.20;59.10;;;;;;;;;;5034294;28;20272;-65
2022/04/14 06:54:49;;;;;;;104.13;54.00;;;;;;;;;;5032873;28;20175;-65
2022/04/14 06:57:15;;;;;;;103.60;54.33;;;;;;;;;;5034194;28;20617;-65
2022/04/14 06:59:41;;;;;;;98.63;55.43;;;;;;;;;;5034313;28;20233;-65
2022/04/14 07:02:08;;;;;;;107.43;53.60;;;;;;;;;;5034146;28;20202;-65
2022/04/14 07:04:34;;;;;;;94.53;53.13;;;;;;;;;;5034227;28;20232;-65
2022/04/14 07:07:00;;;;;;;97.17;52.77;;;;;;;;;;5034064;28;20639;-66
2022/04/14 07:09:31;;;;;;;99.33;55.63;;;;;;;;;;5032703;28;20674;-66
2022/04/14 07:11:59;;;;;;;79.20;49.80;;;;;;;;;;5032805;28;20356;-65
2022/04/14 07:14:26;;;;;;;71.47;45.43;;;;;;;;;;5034449;28;20178;-65
2022/04/14 07:16:52;;;;;;;78.17;45.87;;;;;;;;;;5034129;28;20167;-65
2022/04/14 07:19:17;;;;;;;59.87;40.17;;;;;;;;;;5033786;28;20190;-65
2022/04/14 07:21:44;;;;;;;66.77;43.07;;;;;;;;;;5032185;28;20203;-65
2022/04/14 07:24:10;;;;;;;61.27;41.73;;;;;;;;;;5033984;28;20198;-66
2022/04/14 07:26:36;;;;;;;58.90;39.70;;;;;;;;;;5032704;28;20651;-64
2022/04/14 07:29:02;;;;;;;51.10;34.67;;;;;;;;;;5032766;28;20189;-66
2022/04/14 07:31:30;;;;;;;46.43;32.00;;;;;;;;;;5033825;28;20254;-65
2022/04/14 07:33:56;;;;;;;43.93;33.27;;;;;;;;;;5034016;28;20275;-64
2022/04/14 07:36:22;;;;;;;43.53;31.43;;;;;;;;;;5033866;28;20212;-64
2022/04/14 07:38:48;;;;;;;43.17;32.07;;;;;;;;;;5033290;28;20658;-64
2022/04/14 07:41:14;;;;;;;41.03;30.43;;;;;;;;;;5033139;28;20203;-64
2022/04/14 07:43:40;;;;;;;43.87;30.33;;;;;;;;;;5033398;28;20197;-64
2022/04/14 07:46:06;;;;;;;40.27;31.07;;;;;;;;;;5033571;28;20175;-65
2022/04/14 07:48:32;;;;;;;42.67;30.57;;;;;;;;;;5032292;28;20183;-64
2022/04/14 07:51:00;;;;;;;41.00;31.03;;;;;;;;;;5033108;28;20210;-64
2022/04/14 07:53:26;;;;;;;41.77;31.67;;;;;;;;;;5033666;28;20592;-64
2022/04/14 07:55:52;;;;;;;41.57;29.33;;;;;;;;;;5033294;28;20309;-65
2022/04/14 07:58:19;;;;;;;43.43;32.07;;;;;;;;;;5031960;28;20297;-65
2022/04/14 08:00:46;;;;;;;42.20;32.57;;;;;;;;;;5033571;28;20179;-65
2022/04/14 08:03:12;;;;;;;44.77;33.63;;;;;;;;;;5031776;28;20206;-65
2022/04/14 08:05:39;;;;;;;44.93;33.33;;;;;;;;;;5033146;28;20258;-64
2022/04/14 08:08:06;;;;;;;41.73;31.90;;;;;;;;;;5032008;28;20206;-65
2022/04/14 08:10:33;;;;;;;40.17;31.87;;;;;;;;;;5033260;28;20250;-64
2022/04/14 08:12:59;;;;;;;46.73;33.13;;;;;;;;;;5033113;28;20211;-64
2022/04/14 08:15:25;;;;;;;47.37;35.97;;;;;;;;;;5033233;28;20188;-64
2022/04/14 08:17:51;;;;;;;49.17;36.30;;;;;;;;;;5033082;28;20203;-64
2022/04/14 08:20:17;;;;;;;49.20;38.13;;;;;;;;;;5031744;28;20237;-64
2022/04/14 08:22:44;;;;;;;48.40;38.10;;;;;;;;;;5031649;28;20290;-64
2022/04/14 08:25:10;;;;;;;49.67;39.67;;;;;;;;;;5033071;28;20258;-64
2022/04/14 08:27:36;;;;;;;51.37;38.53;;;;;;;;;;5032852;28;20689;-64
2022/04/14 08:30:02;;;;;;;48.83;39.13;;;;;;;;;;5031640;28;20229;-64
2022/04/14 08:32:28;;;;;;;59.50;40.67;;;;;;;;;;5031375;28;20219;-64
2022/04/14 08:34:54;;;;;;;48.13;38.10;;;;;;;;;;5034492;28;20270;-64
2022/04/14 08:37:20;;;;;;;50.10;37.47;;;;;;;;;;5036531;28;20171;-64
2022/04/14 08:39:46;;;;;;;48.20;37.87;;;;;;;;;;5036624;28;20182;-65
2022/04/14 08:42:16;;;;;;;52.83;40.77;;;;;;;;;;5036273;28;20210;-64
2022/04/14 08:44:47;;;;;;;58.90;42.03;;;;;;;;;;5036755;28;20183;-64
2022/04/14 08:47:16;;;;;;;60.10;45.23;;;;;;;;;;5037003;28;20250;-64
2022/04/14 08:49:44;;;;;;;58.83;44.70;;;;;;;;;;5036682;28;20629;-64
2022/04/14 08:52:14;;;;;;;57.10;42.43;;;;;;;;;;5037077;28;20522;-64
2022/04/14 08:54:40;;;;;;;51.13;40.53;;;;;;;;;;5035555;28;20182;-64
2022/04/14 08:57:09;;;;;;;53.93;39.60;;;;;;;;;;5035168;28;20278;-64
2022/04/14 08:59:35;;;;;;;54.70;41.83;;;;;;;;;;5037029;28;20171;-64
2022/04/14 09:02:05;;;;;;;54.07;41.03;;;;;;;;;;5036213;28;20202;-64
2022/04/14 09:04:31;;;;;;;55.53;40.20;;;;;;;;;;5036044;28;20192;-64
2022/04/14 09:06:57;;;;;;;54.30;40.50;;;;;;;;;;5036321;28;20209;-64
2022/04/14 09:09:24;;;;;;;45.67;36.20;;;;;;;;;;5036429;28;20182;-64
2022/04/14 09:11:50;;;;;;;45.53;36.17;;;;;;;;;;5034666;28;20211;-64
2022/04/14 09:14:16;;;;;;;44.90;36.30;;;;;;;;;;5036248;28;20261;-64
2022/04/14 09:16:42;;;;;;;46.33;33.63;;;;;;;;;;5036257;28;20269;-64
2022/04/14 09:19:08;;;;;;;41.40;33.60;;;;;;;;;;5035008;28;20569;-64
2022/04/14 09:21:34;;;;;;;42.10;33.30;;;;;;;;;;5034585;28;20210;-64
2022/04/14 09:24:00;;;;;;;39.70;32.53;;;;;;;;;;5036453;28;20559;-64
2022/04/14 09:26:26;;;;;;;39.23;31.33;;;;;;;;;;5035886;28;20175;-64
2022/04/14 09:29:10;;;;;;;35.70;26.63;;;;;;;;;;5035847;28;20175;-64
2022/04/14 09:31:50;;;;;;;34.63;25.80;;;;;;;;;;5035894;28;20211;-64
2022/04/14 09:34:18;;;;;;;27.13;22.33;;;;;;;;;;5035862;28;20552;-64
2022/04/14 09:37:04;;;;;;;33.20;25.40;;;;;;;;;;5036518;28;20194;-64
2022/04/14 09:39:30;;;;;;;26.10;22.83;;;;;;;;;;5036265;28;20510;-64
2022/04/14 09:41:56;;;;;;;29.00;23.10;;;;;;;;;;5035818;28;20261;-64
2022/04/14 09:44:23;;;;;;;30.83;25.43;;;;;;;;;;5035929;28;20189;-64
2022/04/14 09:46:49;;;;;;;32.63;24.93;;;;;;;;;;5034248;28;20194;-65
2022/04/14 09:49:18;;;;;;;32.20;25.37;;;;;;;;;;5035563;28;20179;-65
2022/04/14 09:51:45;;;;;;;33.33;26.97;;;;;;;;;;5033880;28;20216;-65
2022/04/14 09:54:16;;;;;;;33.23;27.40;;;;;;;;;;5034019;28;20184;-65
2022/04/14 09:56:43;;;;;;;34.97;28.63;;;;;;;;;;5034049;28;20183;-64
2022/04/14 09:59:10;;;;;;;34.17;28.60;;;;;;;;;;5035017;28;20176;-65
2022/04/14 10:01:37;;;;;;;31.10;26.87;;;;;;;;;;5033569;28;20292;-64
2022/04/14 10:04:04;;;;;;;33.37;28.03;;;;;;;;;;5033634;28;20536;-65
2022/04/14 10:06:30;;;;;;;31.80;26.07;;;;;;;;;;5049594;22;20261;-64
2022/04/14 10:08:57;;;;;;;33.57;26.30;;;;;;;;;;5035629;28;20152;-64
2022/04/14 10:11:26;;;;;;;32.73;25.50;;;;;;;;;;5034857;28;20697;-64
2022/04/14 10:13:52;;;;;;;32.90;27.03;;;;;;;;;;5034926;28;20585;-64
2022/04/14 10:16:20;;;;;;;31.40;25.37;;;;;;;;;;5035072;28;20198;-64
2022/04/14 10:18:47;;;;;;;26.93;23.77;;;;;;;;;;5033788;28;20241;-64
2022/04/14 10:21:14;;;;;;;25.97;22.67;;;;;;;;;;5034824;28;20264;-64
2022/04/14 10:23:40;;;;;;;27.97;20.93;;;;;;;;;;5035147;28;20179;-64
2022/04/14 10:26:07;;;;;;;23.40;20.20;;;;;;;;;;5034646;28;20184;-64
2022/04/14 10:28:33;;;;;;;23.50;19.73;;;;;;;;;;5034689;28;20191;-64
2022/04/14 10:31:00;;;;;;;24.47;20.90;;;;;;;;;;5033196;28;20179;-64
2022/04/14 10:33:27;;;;;;;25.37;20.40;;;;;;;;;;5034878;28;20176;-64
2022/04/14 10:35:53;;;;;;;24.77;19.43;;;;;;;;;;5033048;28;20179;-64
2022/04/14 10:38:29;;;;;;;21.90;18.27;;;;;;;;;;5034571;28;20182;-64
2022/04/14 10:41:04;;;;;;;22.60;18.53;;;;;;;;;;5033469;28;20325;-64
2022/04/14 10:43:32;;;;;;;19.80;17.10;;;;;;;;;;5034300;28;20182;-64
2022/04/14 10:45:58;;;;;;;20.80;17.77;;;;;;;;;;5034385;28;20214;-64
2022/04/14 10:48:34;;;;;;;17.97;15.77;;;;;;;;;;5034389;28;20173;-64
2022/04/14 10:51:19;;;;;;;19.23;14.93;;;;;;;;;;5034239;28;20198;-64
2022/04/14 10:53:49;;;;;;;16.00;13.60;;;;;;;;;;5034579;28;20250;-64
2022/04/14 10:56:34;;;;;;;14.97;12.43;;;;;;;;;;5033599;28;20199;-64
2022/04/14 10:59:11;;;;;;;14.63;13.10;;;;;;;;;;5033982;28;20186;-64
2022/04/14 11:01:46;;;;;;;17.57;13.27;;;;;;;;;;5034696;28;20162;-64
2022/04/14 11:04:31;;;;;;;13.67;11.43;;;;;;;;;;5032802;28;20190;-64
2022/04/14 11:06:59;;;;;;;13.00;11.53;;;;;;;;;;5033785;28;20596;-64
2022/04/14 11:09:43;;;;;;;14.90;11.77;;;;;;;;;;5034147;28;20217;-64
2022/04/14 11:12:25;;;;;;;15.03;12.70;;;;;;;;;;5033733;28;20252;-64
2022/04/14 11:14:58;;;;;;;14.77;12.77;;;;;;;;;;5032802;28;20167;-64
2022/04/14 11:17:37;;;;;;;13.40;11.17;;;;;;;;;;5033766;28;20650;-64
2022/04/14 11:20:15;;;;;;;12.60;10.30;;;;;;;;;;5032578;28;20237;-64
2022/04/14 11:23:00;;;;;;;13.03;10.37;;;;;;;;;;5032379;28;20241;-64
2022/04/14 11:25:42;;;;;;;14.53;12.13;;;;;;;;;;5033595;28;20178;-64
2022/04/14 11:28:17;;;;;;;12.40;9.83;;;;;;;;;;5033683;28;20257;-64
2022/04/14 11:30:44;;;;;;;12.27;9.40;;;;;;;;;;5034173;28;20639;-64
2022/04/14 11:33:28;;;;;;;10.20;8.57;;;;;;;;;;5032690;28;20215;-64
2022/04/14 11:36:14;;;;;;;11.67;8.53;;;;;;;;;;5033464;28;20527;-62
2022/04/14 11:38:51;;;;;;;10.10;8.60;;;;;;;;;;5033439;28;20195;-64
2022/04/14 11:41:36;;;;;;;8.57;5.83;;;;;;;;;;5033595;28;20662;-64
2022/04/14 11:44:03;;;;;;;8.87;7.57;;;;;;;;;;5033549;28;20171;-64
2022/04/14 11:46:30;;;;;;;7.63;6.77;;;;;;;;;;5032054;28;20201;-64
2022/04/14 11:48:56;;;;;;;7.43;6.57;;;;;;;;;;5033589;28;20175;-64
2022/04/14 11:51:22;;;;;;;7.33;6.20;;;;;;;;;;5033726;28;20598;-64
2022/04/14 11:53:48;;;;;;;7.93;6.67;;;;;;;;;;5032293;28;20179;-64
2022/04/14 11:56:17;;;;;;;7.90;6.50;;;;;;;;;;5032012;28;20195;-64
2022/04/14 11:58:44;;;;;;;12.47;7.13;;;;;;;;;;5032414;28;20233;-64
2022/04/14 12:01:11;;;;;;;6.93;6.33;;;;;;;;;;5033512;28;20183;-64
2022/04/14 12:03:37;;;;;;;6.47;5.83;;;;;;;;;;5033475;28;20171;-64
2022/04/14 12:06:07;;;;;;;8.60;7.17;;;;;;;;;;5033465;28;20179;-64
2022/04/14 12:08:33;;;;;;;8.80;6.43;;;;;;;;;;5036379;28;20190;-64
2022/04/14 12:11:03;;;;;;;7.07;6.30;;;;;;;;;;5036023;28;20218;-64
2022/04/14 12:13:33;;;;;;;9.87;7.87;;;;;;;;;;5036126;28;20171;-63
2022/04/14 12:16:09;;;;;;;7.37;6.57;;;;;;;;;;5037877;28;20183;-64
2022/04/14 12:18:36;;;;;;;7.30;5.97;;;;;;;;;;5036672;28;20650;-64
2022/04/14 12:21:02;;;;;;;7.47;6.33;;;;;;;;;;5037426;28;20167;-64
2022/04/14 12:23:28;;;;;;;7.73;6.93;;;;;;;;;;5037053;28;20186;-64
2022/04/14 12:25:56;;;;;;;8.87;7.77;;;;;;;;;;5036950;28;20280;-66
2022/04/14 12:28:22;;;;;;;8.73;7.70;;;;;;;;;;5035661;28;20639;-64
2022/04/14 12:30:48;;;;;;;9.17;8.27;;;;;;;;;;5035598;28;20556;-64
2022/04/14 12:33:15;;;;;;;7.90;6.97;;;;;;;;;;5035576;28;20179;-65
2022/04/14 12:35:42;;;;;;;11.00;7.93;;;;;;;;;;5036878;28;20171;-65
2022/04/14 12:38:19;;;;;;;9.17;8.23;;;;;;;;;;5035633;28;20293;-65
2022/04/14 12:41:01;;;;;;;9.93;8.57;;;;;;;;;;5036951;28;20175;-65
2022/04/14 12:43:31;;;;;;;10.20;8.70;;;;;;;;;;5036712;28;20548;-65
2022/04/14 12:45:57;;;;;;;10.77;9.67;;;;;;;;;;5037040;28;20156;-64
2022/04/14 12:48:27;;;;;;;11.00;9.73;;;;;;;;;;5035575;28;20183;-65
2022/04/14 12:50:57;;;;;;;11.37;9.30;;;;;;;;;;5037062;28;20178;-64
2022/04/14 12:53:26;;;;;;;11.90;8.90;;;;;;;;;;5037346;28;20632;-64
2022/04/14 12:56:10;;;;;;;9.47;7.77;;;;;;;;;;5035631;28;20591;-63
2022/04/14 12:58:36;;;;;;;9.07;8.10;;;;;;;;;;5037113;28;20159;-64
2022/04/14 13:01:08;;;;;;;7.53;6.67;;;;;;;;;;5036591;28;20186;-64
2022/04/14 13:03:47;;;;;;;9.53;5.83;;;;;;;;;;5036641;28;20180;-65
2022/04/14 13:06:17;;;;;;;9.47;6.10;;;;;;;;;;5036421;28;20199;-66
2022/04/14 13:08:43;;;;;;;7.30;6.40;;;;;;;;;;5036573;28;20168;-64
2022/04/14 13:11:09;;;;;;;7.30;6.40;;;;;;;;;;5036118;28;20667;-63
2022/04/14 13:13:35;;;;;;;10.23;6.07;;;;;;;;;;5034932;28;20190;-65
2022/04/14 13:16:01;;;;;;;6.97;5.13;;;;;;;;;;5036032;28;20186;-64
2022/04/14 13:18:27;;;;;;;5.10;4.60;;;;;;;;;;5036113;28;20262;-64
2022/04/14 13:20:53;;;;;;;8.20;5.63;;;;;;;;;;5035306;28;20549;-64
2022/04/14 13:23:20;;;;;;;6.57;5.37;;;;;;;;;;5035942;28;20638;-65
2022/04/14 13:25:47;;;;;;;7.63;5.80;;;;;;;;;;5035966;28;20172;-64
2022/04/14 13:28:13;;;;;;;6.20;5.60;;;;;;;;;;5036076;28;20222;-63
2022/04/14 13:30:39;;;;;;;5.93;5.00;;;;;;;;;;5034636;28;20186;-64
2022/04/14 13:33:05;;;;;;;8.87;4.80;;;;;;;;;;5035577;28;20195;-64
2022/04/14 13:35:35;;;;;;;6.77;5.43;;;;;;;;;;5035643;28;20172;-64
2022/04/14 13:38:01;;;;;;;6.40;4.50;;;;;;;;;;5035645;28;20199;-64
2022/04/14 13:40:27;;;;;;;5.40;4.33;;;;;;;;;;5034373;28;20552;-65
2022/04/14 13:42:53;;;;;;;6.00;4.50;;;;;;;;;;5035687;28;20187;-64
2022/04/14 13:45:19;;;;;;;5.30;4.67;;;;;;;;;;5035419;28;20183;-64
2022/04/14 13:47:45;;;;;;;6.43;3.73;;;;;;;;;;5034160;28;20749;-65
2022/04/14 13:50:12;;;;;;;6.10;4.00;;;;;;;;;;5034109;28;20218;-64
2022/04/14 13:52:38;;;;;;;7.37;3.70;;;;;;;;;;5035774;28;20203;-64
2022/04/14 13:55:05;;;;;;;3.80;3.40;;;;;;;;;;5035479;28;20636;-65
2022/04/14 13:57:31;;;;;;;4.47;3.60;;;;;;;;;;5034200;28;20333;-64
2022/04/14 13:59:57;;;;;;;7.53;3.83;;;;;;;;;;5035316;28;20232;-63
2022/04/14 14:02:23;;;;;;;6.67;3.83;;;;;;;;;;5035442;28;20248;-64
2022/04/14 14:04:49;;;;;;;3.87;3.40;;;;;;;;;;5035228;28;20577;-64
2022/04/14 14:07:15;;;;;;;6.97;3.60;;;;;;;;;;5035011;28;20210;-64
2022/04/14 14:09:41;;;;;;;7.80;3.47;;;;;;;;;;5034204;28;20636;-64
2022/04/14 14:12:07;;;;;;;3.97;3.50;;;;;;;;;;5035549;28;20286;-64
2022/04/14 14:14:33;;;;;;;4.70;4.03;;;;;;;;;;5035011;28;20203;-63
2022/04/14 14:16:59;;;;;;;4.10;3.30;;;;;;;;;;5034843;28;20202;-64